Time;durP1;ratioP1;P1;durP2;ratioP2;P2;SDS_P1;SDS_P2;PMS_P1;PMS_P2;Temp;Humidity;BMP_temperature;BMP_pressure;BME280_temperature;BME280_humidity;BME280_pressure;Samples;Min_cycle;Max_cycle;Signal;HPM_P1;HPM_P2
2022/10/04 00:01:12;;;;;;;12.35;10.05;;;12.50;99.90;;;;;;5112894;28;20266;-64
2022/10/04 00:03:48;;;;;;;14.70;11.07;;;12.50;99.90;;;;;;5104625;28;20221;-63
2022/10/04 00:06:18;;;;;;;9.75;7.60;;;12.40;99.90;;;;;;5094807;28;20728;-63
2022/10/04 00:08:48;;;;;;;12.35;7.97;;;12.40;99.90;;;;;;5098593;28;20299;-65
2022/10/04 00:11:31;;;;;;;11.18;7.88;;;12.40;99.90;;;;;;5094309;28;20706;-66
2022/10/04 00:14:03;;;;;;;11.05;7.10;;;12.40;99.90;;;;;;5101137;28;20229;-66
2022/10/04 00:16:36;;;;;;;12.13;8.57;;;12.40;99.90;;;;;;5085673;28;20263;-66
2022/10/04 00:19:37;;;;;;;11.82;8.38;;;12.50;99.90;;;;;;5089717;28;20180;-66
2022/10/04 00:22:02;;;;;;;18.50;9.40;;;12.50;99.90;;;;;;5096483;28;20539;-66
2022/10/04 00:24:34;;;;;;;16.40;8.38;;;12.40;99.90;;;;;;5116152;27;20259;-65
2022/10/04 00:27:11;;;;;;;12.20;7.47;;;12.30;99.90;;;;;;5112885;27;20185;-65
2022/10/04 00:29:41;;;;;;;17.02;8.38;;;12.20;99.90;;;;;;5106757;28;20648;-66
2022/10/04 00:32:09;;;;;;;17.83;9.35;;;12.20;99.90;;;;;;5089115;28;20176;-66
2022/10/04 00:34:35;;;;;;;10.70;7.90;;;12.10;99.90;;;;;;5122354;27;20188;-65
2022/10/04 00:37:02;;;;;;;15.57;8.43;;;12.10;99.90;;;;;;5113885;27;20209;-65
2022/10/04 00:39:31;;;;;;;10.40;6.38;;;12.10;99.90;;;;;;5084210;28;20195;-66
2022/10/04 00:42:07;;;;;;;11.57;8.15;;;12.00;99.90;;;;;;5108847;28;20180;-66
2022/10/04 00:44:37;;;;;;;13.52;9.13;;;12.00;99.90;;;;;;5102884;27;20240;-66
2022/10/04 00:47:31;;;;;;;10.70;7.35;;;12.00;99.90;;;;;;5122206;27;20195;-65
2022/10/04 00:50:09;;;;;;;12.13;8.38;;;12.00;99.90;;;;;;5110766;27;20592;-66
2022/10/04 00:52:40;;;;;;;10.88;7.68;;;12.20;99.90;;;;;;5115367;27;20178;-66
2022/10/04 00:55:08;;;;;;;12.50;8.32;;;12.20;99.90;;;;;;5105797;28;20184;-66
2022/10/04 00:57:41;;;;;;;17.30;8.30;;;12.20;99.90;;;;;;5111683;27;20180;-66
2022/10/04 01:00:13;;;;;;;12.60;8.13;;;12.40;99.90;;;;;;5114479;28;20582;-66
2022/10/04 01:02:43;;;;;;;14.07;8.48;;;12.30;99.90;;;;;;5094667;28;20176;-66
2022/10/04 01:05:22;;;;;;;13.52;8.57;;;12.30;99.90;;;;;;5084438;28;20227;-66
2022/10/04 01:07:53;;;;;;;11.55;6.95;;;12.30;99.90;;;;;;5088115;28;20275;-66
2022/10/04 01:10:21;;;;;;;14.73;8.20;;;12.30;99.90;;;;;;5086766;28;20221;-66
2022/10/04 01:13:12;;;;;;;12.90;7.88;;;12.10;99.90;;;;;;5114652;28;20184;-66
2022/10/04 01:15:52;;;;;;;18.70;8.30;;;12.10;99.90;;;;;;5095420;28;20658;-66
2022/10/04 01:18:18;;;;;;;14.07;9.90;;;12.00;99.90;;;;;;5110554;27;20210;-65
2022/10/04 01:20:53;;;;;;;11.30;8.57;;;12.00;99.90;;;;;;5114433;27;20211;-66
2022/10/04 01:23:50;;;;;;;12.32;7.43;;;12.00;99.90;;;;;;5092272;28;20203;-66
2022/10/04 01:26:28;;;;;;;13.90;8.90;;;11.80;99.90;;;;;;5113858;27;20203;-66
2022/10/04 01:29:14;;;;;;;11.27;7.85;;;11.70;99.90;;;;;;5114953;28;20648;-66
2022/10/04 01:31:42;;;;;;;9.05;7.35;;;11.60;99.90;;;;;;5092745;28;20199;-66
2022/10/04 01:34:12;;;;;;;15.05;10.27;;;11.70;99.90;;;;;;5100367;28;20180;-66
2022/10/04 01:36:37;;;;;;;18.50;8.95;;;11.70;99.90;;;;;;5076039;28;20184;-66
2022/10/04 01:39:04;;;;;;;11.07;7.55;;;11.60;99.90;;;;;;5109406;27;20187;-66
2022/10/04 01:41:45;;;;;;;14.00;8.45;;;11.50;99.90;;;;;;5095373;28;20186;-66
2022/10/04 01:44:44;;;;;;;16.15;8.98;;;11.50;99.90;;;;;;5108899;28;20254;-66
2022/10/04 01:47:25;;;;;;;11.50;7.95;;;11.50;99.90;;;;;;5082033;28;20195;-66
2022/10/04 01:49:54;;;;;;;14.65;8.45;;;11.40;99.90;;;;;;5113182;27;20180;-66
2022/10/04 01:52:25;;;;;;;14.20;8.52;;;11.30;99.90;;;;;;5095987;27;20234;-66
2022/10/04 01:55:01;;;;;;;10.18;7.45;;;11.30;99.90;;;;;;5099238;28;20191;-66
2022/10/04 01:57:36;;;;;;;13.73;8.75;;;11.30;99.90;;;;;;5114918;27;20210;-66
2022/10/04 02:00:06;;;;;;;17.63;8.80;;;11.20;99.90;;;;;;5100500;28;20191;-66
2022/10/04 02:02:40;;;;;;;14.90;8.35;;;11.20;99.90;;;;;;5092439;28;20192;-66
2022/10/04 02:05:09;;;;;;;11.35;7.57;;;11.10;99.90;;;;;;5107871;27;20206;-66
2022/10/04 02:07:37;;;;;;;14.02;8.55;;;11.20;99.90;;;;;;5100104;27;20203;-66
2022/10/04 02:10:09;;;;;;;14.23;7.82;;;11.50;99.90;;;;;;5109119;28;20212;-66
2022/10/04 02:12:37;;;;;;;13.90;7.53;;;11.40;99.90;;;;;;5095955;28;20180;-66
2022/10/04 02:15:07;;;;;;;12.98;7.65;;;11.20;99.90;;;;;;5099195;28;20591;-66
2022/10/04 02:17:38;;;;;;;11.55;7.25;;;11.20;99.90;;;;;;5114024;27;20533;-66
2022/10/04 02:20:20;;;;;;;10.82;7.25;;;11.20;99.90;;;;;;5078913;28;20189;-66
2022/10/04 02:22:50;;;;;;;13.25;7.57;;;11.10;99.90;;;;;;5095576;28;20528;-66
2022/10/04 02:25:18;;;;;;;18.33;8.48;;;11.10;99.90;;;;;;5101426;27;20203;-66
2022/10/04 02:27:44;;;;;;;13.93;8.40;;;11.00;99.90;;;;;;5095886;28;20191;-66
2022/10/04 02:30:12;;;;;;;11.68;7.50;;;11.00;99.90;;;;;;5060325;28;20245;-66
2022/10/04 02:35:41;;;;;;;13.48;7.40;;;10.90;99.90;;;;;;5103232;27;20195;-66
2022/10/04 02:38:11;;;;;;;9.75;6.15;;;10.90;99.90;;;;;;5106398;27;20235;-66
2022/10/04 02:41:08;;;;;;;8.50;6.37;;;10.90;99.90;;;;;;5101812;28;20559;-66
2022/10/04 02:43:46;;;;;;;9.52;7.07;;;10.80;99.90;;;;;;5083209;28;20177;-66
2022/10/04 02:46:18;;;;;;;9.05;6.55;;;10.80;99.90;;;;;;5091588;27;20556;-66
2022/10/04 02:49:04;;;;;;;9.25;6.78;;;10.80;99.90;;;;;;5087288;28;20172;-66
2022/10/04 02:51:35;;;;;;;11.40;7.47;;;10.90;99.90;;;;;;5110427;28;20179;-66
2022/10/04 02:54:27;;;;;;;11.02;7.28;;;10.90;99.90;;;;;;5105611;28;20187;-66
2022/10/04 02:56:54;;;;;;;11.43;7.73;;;10.80;99.90;;;;;;5105999;28;20180;-66
2022/10/04 02:59:21;;;;;;;12.70;7.47;;;10.80;99.90;;;;;;5099016;28;20184;-66
2022/10/04 03:01:58;;;;;;;12.43;7.87;;;10.70;99.90;;;;;;5091937;28;20184;-65
2022/10/04 03:04:32;;;;;;;9.73;6.33;;;10.80;99.90;;;;;;5104912;28;20207;-66
2022/10/04 03:07:03;;;;;;;10.07;7.27;;;10.80;99.90;;;;;;5099417;28;20195;-66
2022/10/04 03:09:29;;;;;;;17.80;6.40;;;10.70;99.90;;;;;;5109275;28;20188;-65
2022/10/04 03:11:55;;;;;;;9.63;6.05;;;10.70;99.90;;;;;;5112068;28;20248;-66
2022/10/04 03:14:24;;;;;;;13.17;9.37;;;10.80;99.90;;;;;;5112815;28;20656;-66
2022/10/04 03:16:53;;;;;;;11.03;6.13;;;10.90;99.90;;;;;;5102926;28;20267;-66
2022/10/04 03:19:22;;;;;;;9.50;5.93;;;10.80;99.90;;;;;;5089281;28;20218;-66
2022/10/04 03:21:51;;;;;;;9.97;6.37;;;10.90;99.90;;;;;;5087778;28;20187;-66
2022/10/04 03:24:27;;;;;;;10.77;6.30;;;11.00;99.90;;;;;;5113144;28;20184;-67
2022/10/04 03:26:55;;;;;;;7.53;6.23;;;11.00;99.90;;;;;;5093822;28;20199;-66
2022/10/04 03:29:26;;;;;;;10.17;6.17;;;11.00;99.90;;;;;;5109804;28;20244;-66
2022/10/04 03:31:57;;;;;;;11.57;6.43;;;11.10;99.90;;;;;;5085320;28;20196;-66
2022/10/04 03:34:33;;;;;;;9.20;5.27;;;11.40;99.90;;;;;;5099992;28;20226;-65
2022/10/04 03:37:00;;;;;;;10.93;7.33;;;11.40;99.90;;;;;;5123248;28;20544;-66
2022/10/04 03:39:44;;;;;;;10.77;7.57;;;11.40;99.90;;;;;;5063074;28;20189;-66
2022/10/04 03:42:33;;;;;;;10.67;7.10;;;11.50;99.90;;;;;;5075092;28;20181;-66
2022/10/04 03:45:15;;;;;;;12.17;7.10;;;11.50;99.90;;;;;;5102343;28;20272;-65
2022/10/04 03:47:44;;;;;;;10.80;8.60;;;11.50;99.90;;;;;;5094243;28;20194;-69
2022/10/04 03:50:32;;;;;;;9.80;6.87;;;11.40;99.90;;;;;;5095004;28;20609;-66
2022/10/04 03:53:06;;;;;;;11.60;6.90;;;11.40;99.90;;;;;;5115532;28;20184;-66
2022/10/04 03:55:39;;;;;;;10.00;7.23;;;11.40;99.90;;;;;;5098582;28;20186;-66
2022/10/04 03:58:06;;;;;;;13.27;7.80;;;11.40;99.90;;;;;;5115532;27;20670;-66
2022/10/04 04:00:38;;;;;;;16.90;8.03;;;11.40;99.90;;;;;;5091324;28;20195;-67
2022/10/04 04:03:08;;;;;;;14.70;6.30;;;11.40;99.90;;;;;;5090621;28;20187;-66
2022/10/04 04:05:48;;;;;;;11.20;7.73;;;11.40;99.90;;;;;;5098479;28;20212;-66
2022/10/04 04:08:33;;;;;;;16.40;10.23;;;11.30;99.90;;;;;;5114687;27;20645;-66
2022/10/04 04:11:02;;;;;;;14.70;8.90;;;11.20;99.90;;;;;;5115349;27;20660;-67
2022/10/04 04:13:55;;;;;;;14.80;8.60;;;11.20;99.90;;;;;;5115820;28;20176;-67
2022/10/04 04:16:26;;;;;;;12.83;7.10;;;11.00;99.90;;;;;;5111439;28;20194;-66
2022/10/04 04:18:58;;;;;;;11.50;8.70;;;10.90;99.90;;;;;;5108640;28;20196;-67
2022/10/04 04:21:25;;;;;;;18.73;7.57;;;10.80;99.90;;;;;;5113261;27;20259;-67
2022/10/04 04:24:00;;;;;;;8.87;6.53;;;10.80;99.90;;;;;;5112218;28;20187;-66
2022/10/04 04:26:47;;;;;;;10.80;6.47;;;10.90;99.90;;;;;;5102117;27;20684;-66
2022/10/04 04:29:23;;;;;;;11.27;7.97;;;11.00;99.90;;;;;;5111248;27;20521;-67
2022/10/04 04:32:03;;;;;;;14.47;7.93;;;11.10;99.90;;;;;;5104091;28;20654;-67
2022/10/04 04:34:32;;;;;;;12.03;7.73;;;11.20;99.90;;;;;;5085631;28;20199;-66
2022/10/04 04:37:00;;;;;;;12.67;8.77;;;11.10;99.90;;;;;;5103689;27;20176;-67
2022/10/04 04:39:42;;;;;;;17.47;7.50;;;10.90;99.90;;;;;;5102754;28;20204;-66
2022/10/04 04:42:17;;;;;;;14.10;7.87;;;10.80;99.90;;;;;;5108334;28;20181;-66
2022/10/04 04:44:46;;;;;;;14.37;8.80;;;11.00;99.90;;;;;;5080696;28;20263;-67
2022/10/04 04:47:20;;;;;;;14.87;8.53;;;11.10;99.90;;;;;;5095665;27;20254;-66
2022/10/04 04:49:49;;;;;;;11.67;8.53;;;11.00;99.90;;;;;;5113773;27;20496;-66
2022/10/04 04:52:18;;;;;;;14.30;7.90;;;11.10;99.90;;;;;;5077570;28;20538;-66
2022/10/04 04:54:46;;;;;;;11.03;8.97;;;11.10;99.90;;;;;;5088030;28;20177;-66
2022/10/04 04:57:15;;;;;;;14.27;8.63;;;11.20;99.90;;;;;;5060652;28;20268;-66
2022/10/04 04:59:46;;;;;;;14.93;9.23;;;11.10;99.90;;;;;;5095250;27;20182;-66
2022/10/04 05:02:35;;;;;;;15.70;9.40;;;11.10;99.90;;;;;;5097338;28;20267;-66
2022/10/04 05:05:27;;;;;;;14.10;8.90;;;11.20;99.90;;;;;;5109988;27;20308;-66
2022/10/04 05:08:14;;;;;;;14.73;8.93;;;11.10;99.90;;;;;;5089496;28;20238;-66
2022/10/04 05:10:48;;;;;;;13.20;8.90;;;11.00;99.90;;;;;;5115575;27;20203;-67
2022/10/04 05:13:16;;;;;;;15.13;8.80;;;11.00;99.90;;;;;;5115315;27;20176;-66
2022/10/04 05:15:43;;;;;;;14.73;7.97;;;11.10;99.90;;;;;;5096890;28;20227;-66
2022/10/04 05:18:32;;;;;;;15.67;10.03;;;11.10;99.90;;;;;;5092651;28;20263;-67
2022/10/04 05:21:27;;;;;;;14.03;8.57;;;11.10;99.90;;;;;;5060008;28;20177;-67
2022/10/04 05:23:56;;;;;;;13.20;8.73;;;11.00;99.90;;;;;;5078821;28;20641;-66
2022/10/04 05:26:28;;;;;;;15.47;8.03;;;11.00;99.90;;;;;;5099586;28;20224;-67
2022/10/04 05:28:58;;;;;;;11.43;8.40;;;10.90;99.90;;;;;;5107868;27;20690;-66
2022/10/04 05:31:55;;;;;;;12.40;7.67;;;10.90;99.90;;;;;;5121646;27;20263;-66
2022/10/04 05:34:30;;;;;;;15.17;7.33;;;10.70;99.90;;;;;;5102680;28;20185;-66
2022/10/04 05:37:45;;;;;;;11.77;7.93;;;10.70;99.90;;;;;;5090428;28;20184;-66
2022/10/04 05:40:19;;;;;;;17.37;8.53;;;10.70;99.90;;;;;;5066898;28;20196;-67
2022/10/04 05:42:45;;;;;;;13.13;8.30;;;10.60;99.90;;;;;;5089886;28;20188;-66
2022/10/04 05:45:18;;;;;;;12.03;7.57;;;10.50;99.90;;;;;;5113164;27;20212;-66
2022/10/04 05:47:49;;;;;;;12.30;6.97;;;10.60;99.90;;;;;;5096822;28;20176;-66
2022/10/04 05:50:32;;;;;;;19.57;7.87;;;10.50;99.90;;;;;;5097027;28;20173;-66
2022/10/04 05:53:16;;;;;;;12.67;6.93;;;10.50;99.90;;;;;;5113409;27;20176;-67
2022/10/04 05:56:15;;;;;;;14.13;6.87;;;10.50;99.90;;;;;;5096534;28;20196;-66
2022/10/04 05:59:15;;;;;;;12.27;6.87;;;10.70;99.90;;;;;;5076789;28;20191;-67
2022/10/04 06:02:03;;;;;;;11.40;6.37;;;10.60;99.90;;;;;;5083199;28;20222;-66
2022/10/04 06:05:16;;;;;;;14.50;8.07;;;10.50;99.90;;;;;;5093095;28;20180;-66
2022/10/04 06:08:07;;;;;;;12.03;8.80;;;10.60;99.90;;;;;;5079844;28;20200;-67
2022/10/04 06:10:54;;;;;;;10.77;6.37;;;10.40;99.90;;;;;;5103558;28;20643;-66
2022/10/04 06:13:36;;;;;;;11.30;6.73;;;10.30;99.90;;;;;;5077623;28;20234;-66
2022/10/04 06:16:22;;;;;;;14.13;6.97;;;10.40;99.90;;;;;;5119606;27;20186;-66
2022/10/04 06:19:06;;;;;;;12.80;6.77;;;10.40;99.90;;;;;;5099232;28;20164;-66
2022/10/04 06:22:16;;;;;;;13.40;6.70;;;10.50;99.90;;;;;;5114247;27;20637;-68
2022/10/04 06:24:56;;;;;;;10.73;6.40;;;10.60;99.90;;;;;;5107848;28;20186;-68
2022/10/04 06:27:35;;;;;;;13.23;6.47;;;10.80;99.90;;;;;;5106329;28;20184;-67
2022/10/04 06:30:20;;;;;;;11.00;7.07;;;10.70;99.90;;;;;;5099512;27;20207;-67
2022/10/04 06:33:04;;;;;;;10.53;6.67;;;10.70;99.90;;;;;;5077937;28;20326;-67
2022/10/04 06:35:51;;;;;;;10.63;6.07;;;10.70;99.90;;;;;;5090770;27;20188;-67
2022/10/04 06:38:33;;;;;;;11.00;6.20;;;10.70;99.90;;;;;;5106109;28;20230;-65
2022/10/04 06:41:13;;;;;;;7.43;5.70;;;10.70;99.90;;;;;;5094701;28;20621;-64
2022/10/04 06:44:06;;;;;;;14.53;6.17;;;10.80;99.90;;;;;;5100145;28;20183;-64
2022/10/04 06:46:54;;;;;;;11.53;5.73;;;10.70;99.90;;;;;;5103571;28;20756;-65
2022/10/04 06:49:44;;;;;;;10.03;7.03;;;10.70;99.90;;;;;;5102799;28;20183;-64
2022/10/04 06:52:37;;;;;;;9.63;5.77;;;10.70;99.90;;;;;;5104715;28;20168;-64
2022/10/04 06:55:23;;;;;;;10.40;5.93;;;11.00;99.90;;;;;;5079966;28;20201;-65
2022/10/04 06:58:17;;;;;;;11.02;6.07;;;11.00;99.90;;;;;;5101708;28;20191;-65
2022/10/04 07:01:02;;;;;;;13.10;6.28;;;11.70;99.90;;;;;;5096892;28;20536;-65
2022/10/04 07:03:36;;;;;;;12.18;6.50;;;12.90;99.90;;;;;;5099828;28;20569;-65
2022/10/04 07:06:04;;;;;;;13.80;7.47;;;13.60;99.90;;;;;;5075539;28;20203;-65
2022/10/04 07:08:50;;;;;;;9.55;6.88;;;14.60;99.90;;;;;;5089558;28;20211;-65
2022/10/04 07:11:24;;;;;;;11.13;7.47;;;15.80;99.90;;;;;;5112080;28;20195;-66
2022/10/04 07:14:03;;;;;;;6.57;5.13;;;17.00;99.90;;;;;;5088717;28;20578;-65
2022/10/04 07:16:55;;;;;;;8.75;4.43;;;18.10;99.90;;;;;;5097831;28;20259;-66
2022/10/04 07:19:23;;;;;;;5.38;3.92;;;19.20;99.90;;;;;;5076116;28;20168;-65
2022/10/04 07:22:04;;;;;;;11.40;4.10;;;20.10;99.90;;;;;;5084987;28;20182;-66
2022/10/04 07:24:40;;;;;;;7.47;3.95;;;21.00;99.90;;;;;;5100710;28;20218;-63
2022/10/04 07:27:12;;;;;;;6.28;4.80;;;21.80;99.90;;;;;;5104894;27;20186;-64
2022/10/04 07:29:40;;;;;;;7.18;4.35;;;22.30;99.90;;;;;;5115283;27;20647;-68
2022/10/04 07:32:26;;;;;;;7.28;3.28;;;22.60;99.90;;;;;;5085969;28;20168;-63
2022/10/04 07:34:58;;;;;;;6.63;3.80;;;23.00;99.90;;;;;;5107639;27;20525;-65
2022/10/04 07:37:27;;;;;;;8.07;4.78;;;23.40;99.90;;;;;;5110488;28;20184;-65
2022/10/04 07:40:08;;;;;;;11.95;5.13;;;23.30;99.90;;;;;;5086531;28;20207;-65
2022/10/04 07:43:09;;;;;;;8.88;4.22;;;23.20;99.90;;;;;;5108919;27;20186;-66
2022/10/04 07:45:39;;;;;;;8.20;4.57;;;23.10;99.90;;;;;;5114537;27;20191;-66
2022/10/04 07:48:18;;;;;;;7.93;4.72;;;22.90;99.90;;;;;;5100499;28;20177;-66
2022/10/04 07:50:59;;;;;;;9.32;4.65;;;23.20;99.90;;;;;;5086010;28;20306;-65
2022/10/04 07:53:29;;;;;;;8.18;4.95;;;23.40;99.90;;;;;;5091295;28;20271;-66
2022/10/04 07:56:07;;;;;;;12.32;4.43;;;23.60;99.90;;;;;;5104656;27;20260;-65
2022/10/04 07:58:55;;;;;;;8.55;4.20;;;23.80;99.90;;;;;;5103290;28;20221;-66
2022/10/04 08:01:38;;;;;;;13.18;5.15;;;24.20;99.90;;;;;;5103574;28;20187;-66
2022/10/04 08:04:17;;;;;;;7.65;4.80;;;24.30;99.90;;;;;;5105822;27;20179;-66
2022/10/04 08:07:01;;;;;;;11.65;6.35;;;24.40;99.90;;;;;;5110891;27;20204;-66
2022/10/04 08:09:59;;;;;;;6.97;4.85;;;24.10;99.90;;;;;;5111760;27;20225;-67
2022/10/04 08:12:57;;;;;;;8.70;5.18;;;23.80;99.90;;;;;;5108313;27;20206;-66
2022/10/04 08:15:36;;;;;;;8.30;4.10;;;23.00;99.90;;;;;;5092656;28;20251;-67
2022/10/04 08:18:24;;;;;;;8.52;4.15;;;21.70;99.90;;;;;;5086067;28;20175;-66
2022/10/04 08:21:00;;;;;;;9.57;5.35;;;20.90;99.90;;;;;;5089156;28;20171;-65
2022/10/04 08:23:39;;;;;;;6.22;4.35;;;20.00;99.90;;;;;;5114743;28;20172;-65
2022/10/04 08:26:14;;;;;;;6.85;4.53;;;19.60;99.90;;;;;;5120613;27;20203;-65
2022/10/04 08:31:57;;;;;;;7.72;3.92;;;17.80;99.90;;;;;;5108579;27;20176;-64
2022/10/04 08:35:00;;;;;;;9.52;4.93;;;17.40;99.90;;;;;;5110190;27;20672;-64
2022/10/04 08:37:48;;;;;;;8.77;4.60;;;17.00;99.90;;;;;;5111961;28;20215;-65
2022/10/04 08:40:39;;;;;;;9.82;5.63;;;16.90;99.90;;;;;;5078444;28;20278;-64
2022/10/04 08:43:20;;;;;;;7.90;5.75;;;16.90;99.90;;;;;;5087699;28;20180;-63
2022/10/04 08:45:55;;;;;;;10.07;5.55;;;16.70;99.90;;;;;;5107904;27;20665;-63
2022/10/04 08:48:41;;;;;;;12.48;5.30;;;16.70;99.90;;;;;;5091071;27;20211;-64
2022/10/04 08:51:25;;;;;;;8.43;5.10;;;16.80;99.90;;;;;;5104707;28;20204;-65
2022/10/04 08:54:16;;;;;;;9.73;6.72;;;16.80;99.90;;;;;;5089263;28;20636;-65
2022/10/04 08:57:04;;;;;;;8.93;5.43;;;16.80;99.90;;;;;;5079810;28;20184;-65
2022/10/04 08:59:56;;;;;;;7.13;4.50;;;16.80;99.90;;;;;;5106464;28;20198;-65
2022/10/04 09:02:40;;;;;;;7.97;5.35;;;16.80;99.90;;;;;;5109910;28;20176;-64
2022/10/04 09:05:40;;;;;;;9.65;5.30;;;16.80;99.90;;;;;;5109342;28;20673;-65
2022/10/04 09:08:14;;;;;;;5.65;4.55;;;16.60;99.90;;;;;;5106837;28;20225;-64
2022/10/04 09:11:04;;;;;;;8.15;5.53;;;16.60;99.90;;;;;;5097007;28;20648;-67
2022/10/04 09:13:53;;;;;;;13.95;6.07;;;16.70;99.90;;;;;;5110761;28;20234;-65
2022/10/04 09:16:38;;;;;;;10.82;5.10;;;16.70;99.90;;;;;;5103804;28;20184;-63
2022/10/04 09:19:36;;;;;;;11.27;5.25;;;16.70;99.90;;;;;;5103392;27;20260;-63
2022/10/04 09:22:15;;;;;;;9.77;5.22;;;16.70;99.90;;;;;;5108136;27;20171;-66
2022/10/04 09:25:15;;;;;;;17.25;6.22;;;16.40;99.90;;;;;;5108314;27;20633;-65
2022/10/04 09:28:02;;;;;;;12.73;5.45;;;16.40;99.90;;;;;;5096024;28;20206;-64
2022/10/04 09:30:50;;;;;;;7.00;4.22;;;16.30;99.90;;;;;;5076342;28;20173;-66
2022/10/04 09:33:24;;;;;;;11.95;5.10;;;16.30;99.90;;;;;;5099776;28;20222;-66
2022/10/04 09:36:11;;;;;;;11.80;4.50;;;16.30;99.90;;;;;;5109545;27;20206;-65
2022/10/04 09:38:46;;;;;;;7.20;4.43;;;16.30;99.90;;;;;;5104271;28;20187;-65
2022/10/04 09:41:21;;;;;;;7.47;5.22;;;16.40;99.90;;;;;;5099657;27;20202;-65
2022/10/04 09:44:09;;;;;;;10.07;4.95;;;16.40;99.90;;;;;;5101970;27;20263;-70
2022/10/04 09:47:07;;;;;;;7.97;4.10;;;16.40;99.90;;;;;;5086610;28;20682;-67
2022/10/04 09:50:00;;;;;;;7.72;4.63;;;16.40;99.90;;;;;;5082405;27;20524;-69
2022/10/04 09:52:29;;;;;;;15.30;6.25;;;16.30;99.90;;;;;;5095467;28;20172;-68
2022/10/04 09:55:04;;;;;;;8.10;4.75;;;16.40;99.90;;;;;;5094087;28;20595;-68
2022/10/04 09:57:58;;;;;;;6.25;4.97;;;16.30;99.90;;;;;;5099690;28;20596;-67
2022/10/04 10:00:36;;;;;;;7.30;4.32;;;16.20;99.90;;;;;;5106187;27;20221;-69
2022/10/04 10:03:02;;;;;;;7.88;4.03;;;16.30;99.90;;;;;;5101278;27;20179;-67
2022/10/04 10:05:38;;;;;;;9.10;4.05;;;16.50;99.90;;;;;;5104004;27;20262;-68
2022/10/04 10:08:30;;;;;;;7.70;4.00;;;16.60;99.90;;;;;;5112661;27;20186;-68
2022/10/04 10:14:58;;;;;;;4.63;4.22;;;17.00;99.90;;;;;;5100004;27;20183;-67
2022/10/04 10:17:35;;;;;;;7.35;3.58;;;17.20;99.90;;;;;;5024275;28;20182;-69
2022/10/04 10:20:15;;;;;;;5.85;4.90;;;17.30;99.90;;;;;;5029593;28;20189;-69
2022/10/04 10:23:05;;;;;;;7.05;4.68;;;17.30;99.90;;;;;;5092320;28;20195;-68
2022/10/04 10:25:52;;;;;;;7.60;4.15;;;17.50;99.90;;;;;;5107109;28;20564;-68
2022/10/04 10:28:38;;;;;;;7.10;4.45;;;17.50;99.90;;;;;;5107664;28;20184;-68
2022/10/04 10:31:10;;;;;;;4.50;3.95;;;17.50;99.90;;;;;;5078083;28;20565;-68
2022/10/04 10:33:54;;;;;;;4.20;3.75;;;17.50;99.90;;;;;;5099633;27;20211;-68
2022/10/04 10:37:17;;;;;;;8.20;4.43;;;17.50;99.90;;;;;;5112205;28;20272;-68
2022/10/04 10:39:52;;;;;;;7.68;4.85;;;17.50;99.90;;;;;;5050027;28;20227;-68
2022/10/04 10:43:00;;;;;;;5.05;3.90;;;17.50;99.90;;;;;;5050631;28;20185;-68
2022/10/04 10:45:37;;;;;;;7.22;4.28;;;17.50;99.90;;;;;;5098932;27;20227;-69
2022/10/04 10:48:25;;;;;;;13.40;5.43;;;17.70;99.90;;;;;;5095069;28;20207;-68
2022/10/04 10:51:02;;;;;;;6.30;3.50;;;17.60;99.90;;;;;;5091160;28;20179;-68
2022/10/04 10:53:38;;;;;;;7.18;3.78;;;17.60;99.90;;;;;;5095480;28;20168;-68
2022/10/04 10:56:37;;;;;;;9.48;4.47;;;17.80;99.90;;;;;;5110500;28;20172;-68
2022/10/04 10:59:09;;;;;;;6.20;4.60;;;17.80;99.90;;;;;;5083551;28;20180;-68
2022/10/04 11:02:00;;;;;;;8.25;3.60;;;18.00;99.90;;;;;;5091066;28;20553;-68
2022/10/04 11:04:48;;;;;;;3.47;3.17;;;17.90;99.90;;;;;;5080349;28;20218;-68
2022/10/04 11:07:37;;;;;;;4.82;3.13;;;17.90;99.90;;;;;;5102913;28;20875;-68
2022/10/04 11:10:18;;;;;;;11.23;4.25;;;18.00;99.90;;;;;;5040659;28;20184;-67
2022/10/04 11:12:46;;;;;;;11.88;4.20;;;18.30;99.90;;;;;;5111471;28;20225;-67
2022/10/04 11:15:35;;;;;;;8.77;4.45;;;18.40;99.90;;;;;;5084295;28;20633;-67
2022/10/04 11:18:31;;;;;;;5.75;4.00;;;18.60;99.90;;;;;;5103253;28;20172;-68
2022/10/04 11:21:11;;;;;;;53.30;18.42;;;18.60;99.90;;;;;;5074424;28;20189;-69
2022/10/04 11:24:02;;;;;;;28.85;13.35;;;18.60;99.90;;;;;;5108341;28;20631;-69
2022/10/04 11:27:05;;;;;;;8.48;4.25;;;18.60;99.90;;;;;;5073205;28;20235;-66
2022/10/04 11:29:54;;;;;;;29.23;8.10;;;18.70;99.90;;;;;;5112468;28;20176;-68
2022/10/04 11:32:53;;;;;;;10.05;5.90;;;18.60;99.90;;;;;;5100118;28;20196;-68
2022/10/04 11:35:28;;;;;;;12.00;4.93;;;18.40;99.90;;;;;;5090600;28;20207;-69
2022/10/04 11:38:14;;;;;;;7.13;4.40;;;18.40;99.90;;;;;;5112931;28;20179;-67
2022/10/04 11:41:06;;;;;;;6.03;3.55;;;18.50;99.90;;;;;;5095374;28;20656;-68
2022/10/04 11:43:57;;;;;;;6.53;4.15;;;18.60;99.90;;;;;;5100043;28;20275;-68
2022/10/04 11:46:54;;;;;;;10.15;4.65;;;18.80;99.90;;;;;;5085974;28;20271;-66
2022/10/04 11:49:23;;;;;;;9.80;4.63;;;19.10;99.90;;;;;;5101361;28;20548;-68
2022/10/04 11:52:22;;;;;;;9.43;4.45;;;19.10;99.90;;;;;;5096413;28;20575;-67
2022/10/04 11:55:26;;;;;;;7.57;4.68;;;19.00;99.90;;;;;;5093353;28;20180;-69
2022/10/04 11:58:00;;;;;;;5.00;3.35;;;18.90;99.90;;;;;;5094706;28;20392;-68
2022/10/04 12:00:47;;;;;;;9.45;4.50;;;18.80;99.90;;;;;;5112021;28;20183;-66
2022/10/04 12:03:37;;;;;;;5.60;3.70;;;18.80;99.90;;;;;;5077680;28;20177;-66
2022/10/04 12:06:12;;;;;;;3.88;3.35;;;18.80;99.90;;;;;;5091583;28;20211;-67
2022/10/04 12:08:47;;;;;;;3.97;3.03;;;18.90;99.90;;;;;;5084691;28;20173;-67
2022/10/04 12:14:37;;;;;;;6.75;3.70;;;18.90;99.90;;;;;;5100095;28;20187;-66
2022/10/04 12:17:29;;;;;;;6.03;3.75;;;18.80;99.90;;;;;;5079555;28;20208;-67
2022/10/04 12:20:32;;;;;;;3.58;3.28;;;18.80;99.90;;;;;;5081018;28;20360;-68
2022/10/04 12:23:22;;;;;;;3.90;3.13;;;18.70;99.90;;;;;;5100914;28;20181;-68
2022/10/04 12:26:13;;;;;;;3.58;2.50;;;18.80;99.90;;;;;;5114196;28;20211;-68
2022/10/04 12:29:08;;;;;;;5.28;3.28;;;18.90;99.90;;;;;;5094090;28;20180;-68
2022/10/04 12:31:42;;;;;;;3.20;2.90;;;18.90;99.90;;;;;;5113829;27;20205;-68
2022/10/04 12:34:23;;;;;;;4.60;3.20;;;19.00;99.90;;;;;;5083127;28;20180;-68
2022/10/04 12:36:59;;;;;;;3.08;2.78;;;19.10;99.90;;;;;;5104948;27;20176;-66
2022/10/04 12:39:40;;;;;;;6.55;3.22;;;19.10;99.90;;;;;;5109069;28;20172;-67
2022/10/04 12:42:14;;;;;;;3.50;2.90;;;19.20;99.90;;;;;;5104096;28;20176;-64
2022/10/04 12:44:45;;;;;;;6.25;3.15;;;19.30;99.90;;;;;;5113712;28;20625;-64
2022/10/04 12:47:44;;;;;;;4.82;3.70;;;19.30;99.90;;;;;;5110446;28;20184;-64
2022/10/04 12:50:30;;;;;;;3.40;2.70;;;19.40;99.90;;;;;;5091575;28;20180;-66
2022/10/04 12:53:22;;;;;;;4.25;2.60;;;19.30;99.90;;;;;;5105256;28;20180;-64
2022/10/04 12:56:21;;;;;;;4.65;3.75;;;19.10;99.90;;;;;;5105637;27;20693;-64
2022/10/04 12:59:19;;;;;;;4.32;3.00;;;19.20;99.90;;;;;;5093306;28;20184;-64
2022/10/04 13:02:14;;;;;;;7.75;3.47;;;19.30;99.90;;;;;;5116089;27;20168;-64
2022/10/04 13:05:08;;;;;;;4.25;2.67;;;19.30;99.90;;;;;;5062298;28;20298;-64
2022/10/04 13:08:10;;;;;;;5.95;2.88;;;19.20;99.90;;;;;;5112432;27;20191;-64
2022/10/04 13:10:55;;;;;;;6.10;3.63;;;19.30;99.90;;;;;;5114918;27;20196;-65
2022/10/04 13:13:48;;;;;;;7.93;3.42;;;19.10;99.90;;;;;;5085753;28;20180;-64
2022/10/04 13:16:51;;;;;;;3.53;3.20;;;19.20;99.90;;;;;;5113453;27;20172;-65
2022/10/04 13:19:28;;;;;;;6.30;3.55;;;19.30;99.90;;;;;;5085624;28;20221;-65
2022/10/04 13:22:09;;;;;;;4.20;3.10;;;19.30;99.90;;;;;;5114510;27;20573;-64
2022/10/04 13:24:56;;;;;;;11.20;4.28;;;19.40;99.90;;;;;;5096405;28;20651;-65
2022/10/04 13:28:09;;;;;;;6.85;4.40;;;19.20;99.90;;;;;;5104868;27;20580;-65
2022/10/04 13:31:00;;;;;;;6.57;3.45;;;19.20;99.90;;;;;;5012987;28;20596;-65
2022/10/04 13:33:57;;;;;;;7.47;3.65;;;19.30;99.90;;;;;;5099704;28;20197;-64
2022/10/04 13:36:57;;;;;;;8.43;4.38;;;19.30;99.90;;;;;;5098271;28;20173;-68
2022/10/04 13:39:37;;;;;;;3.50;3.20;;;19.30;99.90;;;;;;5111611;27;20176;-65
2022/10/04 13:42:26;;;;;;;5.72;2.67;;;19.30;99.90;;;;;;5106272;27;20565;-66
2022/10/04 13:44:57;;;;;;;6.60;3.35;;;19.30;99.90;;;;;;5102090;28;20180;-65
2022/10/04 13:48:09;;;;;;;3.63;3.35;;;19.30;99.90;;;;;;5110570;28;20176;-65
2022/10/04 13:50:52;;;;;;;8.02;3.17;;;19.20;99.90;;;;;;5081082;27;20539;-65
2022/10/04 13:57:25;;;;;;;11.48;5.90;;;19.30;99.90;;;;;;5062964;28;20532;-65
2022/10/04 13:59:58;;;;;;;4.07;3.67;;;19.50;99.90;;;;;;5070432;28;20185;-66
2022/10/04 14:02:30;;;;;;;6.47;2.90;;;19.60;99.90;;;;;;5094926;27;20544;-65
2022/10/04 14:05:28;;;;;;;3.47;3.08;;;19.50;99.90;;;;;;5113694;28;20637;-65
2022/10/04 14:08:02;;;;;;;4.43;2.65;;;19.20;99.90;;;;;;5103025;27;20188;-66